Time;durP1;ratioP1;P1;durP2;ratioP2;P2;SDS_P1;SDS_P2;PMS_P1;PMS_P2;Temp;Humidity;BMP_temperature;BMP_pressure;BME280_temperature;BME280_humidity;BME280_pressure;Samples;Min_cycle;Max_cycle;Signal;HPM_P1;HPM_P2
2022/08/28 00:00:11;;;;;;;4.10;2.63;;;27.90;68.80;;;;;;5042985;28;90188;-52
2022/08/28 00:02:39;;;;;;;5.30;2.33;;;27.90;68.60;;;;;;5043323;28;89844;-52
2022/08/28 00:05:08;;;;;;;3.63;2.63;;;27.90;68.80;;;;;;5042347;28;87028;-53
2022/08/28 00:07:36;;;;;;;4.30;2.33;;;27.90;68.60;;;;;;5042609;28;88275;-52
2022/08/28 00:10:05;;;;;;;6.17;2.00;;;27.80;69.20;;;;;;5043446;28;89287;-52
2022/08/28 00:12:34;;;;;;;5.17;2.50;;;27.80;68.40;;;;;;5043402;28;91241;-52
2022/08/28 00:15:02;;;;;;;3.47;2.13;;;27.80;68.70;;;;;;5043290;28;87048;-52
2022/08/28 00:17:31;;;;;;;4.27;2.60;;;27.80;68.60;;;;;;5043370;28;86417;-52
2022/08/28 00:19:59;;;;;;;3.73;2.20;;;27.90;68.70;;;;;;5042950;28;89115;-53
2022/08/28 00:22:27;;;;;;;4.37;2.27;;;27.80;69.40;;;;;;5042739;28;87749;-53
2022/08/28 00:24:58;;;;;;;4.30;2.47;;;27.80;68.50;;;;;;5041723;28;88055;-53
2022/08/28 00:30:13;;;;;;;6.40;2.20;;;27.70;68.30;;;;;;5035046;28;89501;-53
2022/08/28 00:32:42;;;;;;;3.00;1.70;;;27.70;68.40;;;;;;5040468;28;88951;-52
2022/08/28 00:35:11;;;;;;;4.73;2.67;;;27.70;68.50;;;;;;5042327;28;86869;-53
2022/08/28 00:37:39;;;;;;;6.60;2.23;;;27.70;68.40;;;;;;5042346;28;87092;-52
2022/08/28 00:40:08;;;;;;;2.70;1.77;;;27.70;68.50;;;;;;5042169;28;89140;-53
2022/08/28 00:42:37;;;;;;;4.97;1.97;;;27.60;68.30;;;;;;5042795;28;88855;-52
2022/08/28 00:45:06;;;;;;;3.77;1.80;;;27.70;68.40;;;;;;5040329;28;87323;-52
2022/08/28 00:47:34;;;;;;;3.67;2.13;;;27.60;68.10;;;;;;5040659;28;87341;-52
2022/08/28 00:50:04;;;;;;;3.30;1.97;;;27.60;68.40;;;;;;5038970;27;90072;-52
2022/08/28 00:52:31;;;;;;;3.87;1.67;;;27.70;68.10;;;;;;5041745;28;89861;-52
2022/08/28 00:55:01;;;;;;;2.67;1.93;;;27.60;68.40;;;;;;5041829;28;87083;-52
2022/08/28 00:57:31;;;;;;;5.23;2.30;;;27.60;68.10;;;;;;5037974;28;87139;-53
2022/08/28 00:59:59;;;;;;;2.70;2.33;;;27.60;68.20;;;;;;5036586;28;89099;-52
2022/08/28 01:02:27;;;;;;;4.27;1.97;;;27.60;68.30;;;;;;5036843;28;89072;-52
2022/08/28 01:04:55;;;;;;;5.60;1.53;;;27.60;68.40;;;;;;5035331;28;88784;-54
2022/08/28 01:07:24;;;;;;;3.17;1.70;;;27.60;68.20;;;;;;5035649;28;88291;-52
2022/08/28 01:09:53;;;;;;;2.40;1.47;;;27.60;68.30;;;;;;5036405;28;87497;-53
2022/08/28 01:12:23;;;;;;;1.93;1.50;;;27.60;68.30;;;;;;5035919;28;88758;-53
2022/08/28 01:14:52;;;;;;;3.90;1.50;;;27.60;68.10;;;;;;5039952;28;87951;-53
2022/08/28 01:17:20;;;;;;;2.13;1.27;;;27.50;68.00;;;;;;5041093;27;88084;-52
2022/08/28 01:19:55;;;;;;;4.03;1.40;;;27.50;68.90;;;;;;5040519;28;89259;-52
2022/08/28 01:22:28;;;;;;;2.10;1.40;;;27.60;68.10;;;;;;5041021;28;88885;-52
2022/08/28 01:25:00;;;;;;;2.07;1.20;;;27.50;67.80;;;;;;5041837;28;87289;-52
2022/08/28 01:27:29;;;;;;;2.37;1.47;;;27.50;67.90;;;;;;5040157;27;87086;-52
2022/08/28 01:29:57;;;;;;;2.50;1.37;;;27.50;68.00;;;;;;5040895;28;89221;-52
2022/08/28 01:32:33;;;;;;;3.80;1.03;;;27.50;68.10;;;;;;5041665;28;88855;-52
2022/08/28 01:35:02;;;;;;;1.17;1.07;;;27.40;68.00;;;;;;5040871;28;87148;-52
2022/08/28 01:37:30;;;;;;;4.10;1.40;;;27.40;68.00;;;;;;5040932;28;88874;-52
2022/08/28 01:40:00;;;;;;;2.23;1.20;;;28.00;69.50;;;;;;5041493;28;90102;-52
2022/08/28 01:42:28;;;;;;;1.13;1.00;;;27.40;68.00;;;;;;5041065;28;89735;-52
2022/08/28 01:44:56;;;;;;;2.13;1.43;;;27.40;68.20;;;;;;5041604;28;87276;-52
2022/08/28 01:47:24;;;;;;;1.53;1.40;;;27.40;68.20;;;;;;5040902;28;87106;-53
2022/08/28 01:49:52;;;;;;;3.80;1.10;;;27.40;68.20;;;;;;5040537;28;89201;-52
2022/08/28 01:52:20;;;;;;;1.60;1.00;;;27.40;68.20;;;;;;5042158;28;87696;-52
2022/08/28 01:54:53;;;;;;;4.40;1.30;;;27.40;68.10;;;;;;5041541;28;87134;-52
2022/08/28 01:57:24;;;;;;;2.30;1.17;;;27.40;68.10;;;;;;5041570;28;86311;-52
2022/08/28 01:59:53;;;;;;;1.90;0.97;;;27.40;68.10;;;;;;5041335;27;91424;-52
2022/08/28 02:02:21;;;;;;;2.00;1.00;;;27.30;68.00;;;;;;5041871;28;88869;-52
2022/08/28 02:04:49;;;;;;;1.13;0.97;;;27.40;68.10;;;;;;5040419;28;89837;-52
2022/08/28 02:07:17;;;;;;;1.57;1.17;;;27.30;68.00;;;;;;5041351;28;87207;-52
2022/08/28 02:09:45;;;;;;;2.63;1.00;;;27.30;68.00;;;;;;5040787;28;89171;-53
2022/08/28 02:12:13;;;;;;;2.73;1.67;;;27.40;68.10;;;;;;5040691;28;88819;-52
2022/08/28 02:14:43;;;;;;;1.77;0.93;;;27.30;68.80;;;;;;5041055;28;86920;-52
2022/08/28 02:17:11;;;;;;;4.33;1.37;;;27.40;68.20;;;;;;5040921;28;87528;-52
2022/08/28 02:19:39;;;;;;;1.87;1.30;;;27.30;67.90;;;;;;5040196;28;89439;-52
2022/08/28 02:22:08;;;;;;;1.17;0.90;;;27.30;68.00;;;;;;5041022;28;87918;-53
2022/08/28 02:24:36;;;;;;;1.43;1.20;;;27.30;68.10;;;;;;5040386;28;87247;-53
2022/08/28 02:27:05;;;;;;;1.00;0.90;;;27.30;68.10;;;;;;5040708;28;87137;-53
2022/08/28 02:29:33;;;;;;;4.67;1.37;;;27.30;67.80;;;;;;5040307;28;90108;-52
2022/08/28 02:32:04;;;;;;;4.10;0.90;;;27.20;68.00;;;;;;5040257;28;89813;-52
2022/08/28 02:34:32;;;;;;;2.63;1.13;;;27.20;67.80;;;;;;5034054;28;87327;-52
2022/08/28 02:37:02;;;;;;;2.73;1.23;;;27.20;67.90;;;;;;5040521;28;87007;-52
2022/08/28 02:39:32;;;;;;;1.20;0.57;;;27.20;68.00;;;;;;5041566;28;89165;-53
2022/08/28 02:42:00;;;;;;;1.70;1.00;;;27.30;68.10;;;;;;5038153;28;87603;-52
2022/08/28 02:44:28;;;;;;;1.27;0.90;;;27.20;67.90;;;;;;5039238;27;88213;-52
2022/08/28 02:46:56;;;;;;;0.77;0.60;;;27.20;68.00;;;;;;5040911;28;86385;-52
2022/08/28 02:49:26;;;;;;;1.17;0.80;;;27.20;68.00;;;;;;5038333;28;89241;-52
2022/08/28 02:52:03;;;;;;;1.53;1.23;;;27.10;67.90;;;;;;5038180;27;88829;-52
2022/08/28 02:54:31;;;;;;;1.53;0.77;;;27.20;67.80;;;;;;5040573;28;88031;-53
2022/08/28 02:56:59;;;;;;;2.37;1.33;;;27.10;68.00;;;;;;5044225;28;87055;-53
2022/08/28 02:59:28;;;;;;;3.93;1.63;;;27.10;68.10;;;;;;5043000;28;89254;-53
2022/08/28 03:01:56;;;;;;;3.93;1.97;;;27.10;68.00;;;;;;5044167;28;88777;-53
2022/08/28 03:04:25;;;;;;;2.17;1.80;;;27.10;68.00;;;;;;5043481;28;88615;-53
2022/08/28 03:06:53;;;;;;;3.40;2.40;;;27.20;67.80;;;;;;5032725;28;87163;-53
2022/08/28 03:09:21;;;;;;;3.27;2.40;;;27.10;68.80;;;;;;5044924;28;89233;-53
2022/08/28 03:11:52;;;;;;;3.40;2.57;;;27.20;68.10;;;;;;5043666;28;88873;-53
2022/08/28 03:14:20;;;;;;;4.47;2.60;;;27.10;68.00;;;;;;5043879;28;87134;-53
2022/08/28 03:16:48;;;;;;;5.57;2.67;;;27.10;67.90;;;;;;5043947;28;87021;-53
2022/08/28 03:19:16;;;;;;;6.17;2.87;;;27.10;68.00;;;;;;5043554;28;90019;-53
2022/08/28 03:21:46;;;;;;;2.93;2.50;;;27.10;67.80;;;;;;5042891;28;89851;-53
2022/08/28 03:24:14;;;;;;;3.73;2.53;;;27.50;68.30;;;;;;5042511;28;88587;-53
2022/08/28 03:26:43;;;;;;;4.67;2.47;;;27.00;67.80;;;;;;5043918;28;87091;-53
2022/08/28 03:29:11;;;;;;;5.77;2.53;;;27.00;67.90;;;;;;5044277;28;89070;-53
2022/08/28 03:31:39;;;;;;;4.27;3.07;;;27.10;68.10;;;;;;5043499;28;88898;-53
2022/08/28 03:34:07;;;;;;;5.37;3.07;;;27.00;67.90;;;;;;5044044;28;87014;-53
2022/08/28 03:36:35;;;;;;;5.63;2.40;;;27.00;68.00;;;;;;5043942;28;86364;-53
2022/08/28 03:39:05;;;;;;;6.13;2.63;;;27.00;68.00;;;;;;5042359;28;89227;-54
2022/08/28 03:41:33;;;;;;;5.13;2.83;;;27.00;68.00;;;;;;5042157;28;88945;-53
2022/08/28 03:44:02;;;;;;;4.87;2.93;;;27.00;67.90;;;;;;5025232;28;88182;-53
2022/08/28 03:46:31;;;;;;;4.23;2.97;;;27.00;67.80;;;;;;5043827;28;86860;-53
2022/08/28 03:49:00;;;;;;;4.40;2.70;;;27.00;67.80;;;;;;5043514;27;87972;-52
2022/08/28 03:51:30;;;;;;;4.40;2.20;;;27.00;68.00;;;;;;5042537;28;87948;-54
2022/08/28 03:53:58;;;;;;;3.60;2.77;;;26.90;67.70;;;;;;5042853;28;87126;-54
2022/08/28 03:56:29;;;;;;;4.37;2.70;;;26.90;68.80;;;;;;5043949;28;87065;-54
2022/08/28 03:58:58;;;;;;;5.80;3.20;;;26.90;67.70;;;;;;5042856;27;89235;-53
2022/08/28 04:01:27;;;;;;;4.40;2.80;;;26.90;67.70;;;;;;5043069;28;89045;-53
2022/08/28 04:03:55;;;;;;;4.53;2.60;;;26.90;67.70;;;;;;5042379;28;86990;-54
2022/08/28 04:06:23;;;;;;;3.00;2.23;;;26.90;67.90;;;;;;5042558;28;87108;-54
2022/08/28 04:08:51;;;;;;;5.73;2.20;;;26.90;67.90;;;;;;5041242;28;90084;-54
2022/08/28 04:11:20;;;;;;;5.73;2.90;;;26.90;67.90;;;;;;5042004;28;89722;-54
2022/08/28 04:13:49;;;;;;;7.37;2.77;;;26.90;67.90;;;;;;5042748;28;86932;-54
2022/08/28 04:16:17;;;;;;;3.77;2.37;;;26.90;67.90;;;;;;5043784;28;86918;-53
2022/08/28 04:18:49;;;;;;;3.70;2.17;;;26.90;67.70;;;;;;5043443;28;89239;-53
2022/08/28 04:21:18;;;;;;;3.23;2.17;;;26.90;67.80;;;;;;5042619;27;89005;-53
2022/08/28 04:23:46;;;;;;;4.37;2.53;;;26.90;67.70;;;;;;5043259;28;87210;-54
2022/08/28 04:26:16;;;;;;;3.10;2.40;;;26.90;68.00;;;;;;5043458;28;86318;-54
2022/08/28 04:28:44;;;;;;;5.23;2.43;;;26.90;67.90;;;;;;5043895;27;91522;-53
2022/08/28 04:31:13;;;;;;;3.70;1.90;;;26.80;68.00;;;;;;5043141;28;88805;-53
2022/08/28 04:33:41;;;;;;;4.03;2.77;;;26.80;68.10;;;;;;5041542;27;88011;-54
2022/08/28 04:36:11;;;;;;;5.97;2.27;;;26.90;68.90;;;;;;5042466;28;87100;-54
2022/08/28 04:38:39;;;;;;;5.90;2.90;;;26.90;67.90;;;;;;5042517;28;89200;-54
2022/08/28 04:41:12;;;;;;;4.87;2.60;;;26.90;68.20;;;;;;5041899;28;89121;-54
2022/08/28 04:43:40;;;;;;;3.87;2.43;;;26.80;68.00;;;;;;5041659;28;87541;-54
2022/08/28 04:46:10;;;;;;;4.87;2.80;;;26.80;68.10;;;;;;5042248;28;86983;-54
2022/08/28 04:48:40;;;;;;;3.80;2.77;;;26.80;68.00;;;;;;5041198;27;89011;-54
2022/08/28 04:51:09;;;;;;;7.13;3.00;;;26.80;68.20;;;;;;5042404;28;89149;-54
2022/08/28 04:53:37;;;;;;;7.13;3.57;;;26.80;68.00;;;;;;5041706;28;88366;-54
2022/08/28 04:56:07;;;;;;;5.17;3.00;;;26.80;68.20;;;;;;5042016;28;87068;-54
2022/08/28 04:58:35;;;;;;;6.53;3.87;;;26.80;68.00;;;;;;5041437;28;90160;-54
2022/08/28 05:01:05;;;;;;;3.97;2.37;;;26.80;68.20;;;;;;5040477;28;89854;-53
2022/08/28 05:03:34;;;;;;;7.93;3.50;;;26.80;68.10;;;;;;5042396;28;86991;-54
2022/08/28 05:06:04;;;;;;;7.00;3.67;;;26.80;68.20;;;;;;5042272;27;87109;-53
2022/08/28 05:08:32;;;;;;;6.67;4.00;;;26.80;68.30;;;;;;5042631;28;89209;-53
2022/08/28 05:11:09;;;;;;;6.87;3.90;;;26.80;68.20;;;;;;5040910;28;88954;-54
2022/08/28 05:13:37;;;;;;;6.83;4.13;;;26.80;68.10;;;;;;5042060;28;87316;-53
2022/08/28 05:16:06;;;;;;;7.30;3.73;;;26.80;68.10;;;;;;5042803;28;86198;-54
2022/08/28 05:18:34;;;;;;;8.57;4.13;;;26.80;67.90;;;;;;5041727;28;89104;-54
2022/08/28 05:21:04;;;;;;;7.57;3.90;;;26.90;68.20;;;;;;5041873;28;88877;-54
2022/08/28 05:23:32;;;;;;;9.63;4.37;;;26.90;68.00;;;;;;5041430;28;87917;-53
2022/08/28 05:26:00;;;;;;;7.07;4.10;;;26.90;68.00;;;;;;5041527;28;87072;-54
2022/08/28 05:28:28;;;;;;;8.87;4.60;;;26.90;68.00;;;;;;5041204;28;89263;-54
2022/08/28 05:30:56;;;;;;;6.27;4.20;;;26.90;68.00;;;;;;5041094;27;89030;-54
2022/08/28 05:33:24;;;;;;;9.07;4.50;;;26.90;68.00;;;;;;5040702;28;87270;-54
2022/08/28 05:35:52;;;;;;;8.40;4.70;;;26.90;68.10;;;;;;5041056;28;86933;-54
2022/08/28 05:38:22;;;;;;;9.93;5.17;;;26.80;68.10;;;;;;5041060;28;89269;-54
2022/08/28 05:40:50;;;;;;;13.07;5.53;;;26.80;68.20;;;;;;5042067;28;87754;-54
2022/08/28 05:43:18;;;;;;;8.67;5.20;;;26.80;68.20;;;;;;5047375;27;87005;-54
2022/08/28 05:45:56;;;;;;;10.20;5.57;;;26.80;68.10;;;;;;5041906;28;87067;-54
2022/08/28 05:48:28;;;;;;;8.40;5.00;;;26.80;68.00;;;;;;5039190;28;90003;-53
2022/08/28 05:50:57;;;;;;;9.40;5.70;;;26.80;68.00;;;;;;5040718;27;89711;-54
2022/08/28 05:53:27;;;;;;;8.07;5.07;;;26.70;68.20;;;;;;5036825;28;86917;-53
2022/08/28 05:55:55;;;;;;;11.97;5.63;;;26.70;68.30;;;;;;5041671;28;86982;-54
2022/08/28 05:58:30;;;;;;;13.40;5.77;;;26.80;68.20;;;;;;5040067;27;89199;-53
2022/08/28 06:01:08;;;;;;;9.47;5.50;;;26.70;68.10;;;;;;5038200;28;88950;-53
2022/08/28 06:03:37;;;;;;;10.07;6.40;;;26.70;68.00;;;;;;5041084;28;87058;-53
2022/08/28 06:06:05;;;;;;;11.13;6.03;;;26.80;68.20;;;;;;5041436;28;87897;-53
2022/08/28 06:08:35;;;;;;;12.30;6.00;;;26.80;68.20;;;;;;5040701;28;89226;-54
2022/08/28 06:11:04;;;;;;;11.93;6.37;;;26.80;68.50;;;;;;5040577;28;88936;-53
2022/08/28 06:13:33;;;;;;;13.43;6.50;;;26.80;68.20;;;;;;5040022;27;88122;-53
2022/08/28 06:16:03;;;;;;;11.67;5.87;;;26.70;68.30;;;;;;5040809;28;87159;-53
2022/08/28 06:18:34;;;;;;;11.97;6.80;;;26.80;68.20;;;;;;5041434;28;87737;-54
2022/08/28 06:21:02;;;;;;;12.57;6.40;;;26.80;68.10;;;;;;5040342;27;88816;-53
2022/08/28 06:23:30;;;;;;;9.93;5.93;;;26.80;68.10;;;;;;5040895;28;88912;-53
2022/08/28 06:26:00;;;;;;;14.90;6.40;;;26.80;68.20;;;;;;5040221;27;87070;-54
2022/08/28 06:28:28;;;;;;;12.57;5.70;;;26.80;68.00;;;;;;5053411;27;89182;-54
2022/08/28 06:30:56;;;;;;;12.63;6.23;;;26.90;68.20;;;;;;5041129;28;88982;-54
2022/08/28 06:33:44;;;;;;;9.33;5.97;;;26.80;68.10;;;;;;5041186;28;87091;-54
2022/08/28 06:36:12;;;;;;;10.40;5.77;;;26.90;68.20;;;;;;5040127;28;87028;-54
2022/08/28 06:38:45;;;;;;;12.10;6.50;;;26.80;68.00;;;;;;5040511;28;90101;-54
2022/08/28 06:41:14;;;;;;;12.73;6.20;;;26.90;68.10;;;;;;5040473;28;89909;-53
2022/08/28 06:43:43;;;;;;;13.30;7.40;;;26.90;68.90;;;;;;5036570;28;87191;-54
2022/08/28 06:46:12;;;;;;;10.37;6.53;;;26.90;68.00;;;;;;5040249;28;87162;-54
2022/08/28 06:48:40;;;;;;;11.97;7.43;;;26.90;68.00;;;;;;5040738;28;87812;-54
2022/08/28 06:51:09;;;;;;;11.00;6.07;;;26.90;68.00;;;;;;5039192;28;88966;-54
2022/08/28 06:53:38;;;;;;;13.30;6.80;;;26.90;67.90;;;;;;5040066;28;87100;-54
2022/08/28 06:56:08;;;;;;;12.33;6.60;;;26.90;68.00;;;;;;5040115;28;86389;-54
2022/08/28 06:58:39;;;;;;;13.03;6.37;;;26.90;67.80;;;;;;5039762;28;89167;-53
2022/08/28 07:01:09;;;;;;;13.73;6.50;;;26.90;67.90;;;;;;5040231;28;89058;-54
2022/08/28 07:03:37;;;;;;;11.23;6.97;;;26.90;67.80;;;;;;5039943;27;88180;-54
2022/08/28 07:06:11;;;;;;;11.67;6.77;;;26.90;67.90;;;;;;5040029;28;87050;-54
2022/08/28 07:08:40;;;;;;;8.40;4.77;;;27.00;67.90;;;;;;5040758;28;88439;-54
2022/08/28 07:11:12;;;;;;;11.13;6.57;;;27.00;68.00;;;;;;5039792;28;88889;-53
2022/08/28 07:13:42;;;;;;;12.47;5.77;;;27.00;67.80;;;;;;5040534;28;87057;-54
2022/08/28 07:16:10;;;;;;;15.03;6.07;;;27.00;68.90;;;;;;5039714;27;87005;-53
2022/08/28 07:18:38;;;;;;;10.27;6.63;;;27.00;68.00;;;;;;5033843;27;87724;-53
2022/08/28 07:21:06;;;;;;;16.00;6.50;;;27.00;67.90;;;;;;5032114;28;88834;-53
2022/08/28 07:23:39;;;;;;;17.60;7.67;;;27.00;68.00;;;;;;5040051;27;87086;-53
2022/08/28 07:26:09;;;;;;;12.27;6.53;;;27.00;68.00;;;;;;5042516;28;87031;-53
2022/08/28 07:28:37;;;;;;;10.13;6.10;;;27.10;68.00;;;;;;5043458;28;88803;-54
2022/08/28 07:31:08;;;;;;;12.03;6.50;;;27.00;68.10;;;;;;5043548;28;88728;-53
2022/08/28 07:33:38;;;;;;;6.47;4.53;;;27.10;68.30;;;;;;5043396;28;87352;-54
2022/08/28 07:36:06;;;;;;;8.07;4.63;;;27.10;68.40;;;;;;5042268;28;87222;-53
2022/08/28 07:38:42;;;;;;;6.30;3.97;;;27.00;68.30;;;;;;5043589;28;89198;-53
2022/08/28 07:41:14;;;;;;;5.33;2.97;;;27.10;68.60;;;;;;5042622;28;88846;-53
2022/08/28 07:46:29;;;;;;;4.23;2.00;;;26.90;68.30;;;;;;5041264;28;87545;-53
2022/08/28 07:48:58;;;;;;;7.80;2.10;;;26.90;68.50;;;;;;5043534;27;89110;-53
2022/08/28 07:51:26;;;;;;;3.40;1.33;;;26.90;68.40;;;;;;5042924;28;88843;-53
2022/08/28 07:53:56;;;;;;;3.03;1.37;;;26.80;68.30;;;;;;5038288;27;88120;-53
2022/08/28 07:56:24;;;;;;;1.50;1.00;;;26.80;68.30;;;;;;5043502;28;87032;-53
2022/08/28 07:58:52;;;;;;;3.60;1.73;;;26.70;68.40;;;;;;5042145;27;89149;-53
2022/08/28 08:01:20;;;;;;;2.47;1.47;;;26.70;68.40;;;;;;5042940;28;88986;-52
2022/08/28 08:03:50;;;;;;;3.57;1.40;;;26.70;68.50;;;;;;5042141;28;86976;-51
2022/08/28 08:06:27;;;;;;;7.07;1.40;;;26.80;68.60;;;;;;5043072;28;87090;-49
2022/08/28 08:09:01;;;;;;;1.87;0.97;;;26.70;68.60;;;;;;5040874;28;89084;-50
2022/08/28 08:11:29;;;;;;;1.10;0.80;;;26.70;68.60;;;;;;5043306;28;88742;-50
2022/08/28 08:14:02;;;;;;;1.13;0.80;;;26.70;68.50;;;;;;5042789;27;87094;-50
2022/08/28 08:16:33;;;;;;;2.80;0.87;;;26.70;69.00;;;;;;5043791;28;86848;-50
2022/08/28 08:19:03;;;;;;;1.53;0.93;;;26.70;68.30;;;;;;5042439;28;90032;-52
2022/08/28 08:21:31;;;;;;;3.70;1.20;;;26.60;68.30;;;;;;5042550;28;89839;-53
2022/08/28 08:23:59;;;;;;;5.97;1.17;;;26.60;68.40;;;;;;5041970;28;87128;-51
2022/08/28 08:26:28;;;;;;;1.57;0.80;;;26.60;68.50;;;;;;5042978;28;88327;-51
2022/08/28 08:28:56;;;;;;;0.63;0.63;;;26.60;68.40;;;;;;5046782;27;89248;-51
2022/08/28 08:31:26;;;;;;;2.30;0.80;;;26.60;68.30;;;;;;5051383;27;88958;-51
2022/08/28 08:33:56;;;;;;;2.73;0.90;;;26.60;68.10;;;;;;5044187;27;87911;-51
2022/08/28 08:36:26;;;;;;;1.00;0.90;;;26.60;68.20;;;;;;5042975;27;86427;-51
2022/08/28 08:38:54;;;;;;;2.70;0.60;;;26.60;68.20;;;;;;5042798;28;89132;-51
2022/08/28 08:41:30;;;;;;;0.70;0.63;;;26.60;68.20;;;;;;5042885;28;88782;-51
2022/08/28 08:44:01;;;;;;;1.00;0.90;;;26.60;68.10;;;;;;5042535;28;88044;-51
2022/08/28 08:46:32;;;;;;;1.33;0.77;;;26.60;68.10;;;;;;5045239;27;86944;-51
2022/08/28 08:49:02;;;;;;;2.07;0.90;;;26.60;68.10;;;;;;5044677;27;89105;-51
2022/08/28 08:51:39;;;;;;;3.67;0.80;;;26.60;68.00;;;;;;5051511;27;89227;-51
2022/08/28 08:54:10;;;;;;;2.50;0.70;;;26.50;68.70;;;;;;5039437;27;86930;-51
2022/08/28 08:56:42;;;;;;;1.00;0.90;;;26.50;68.00;;;;;;5042820;28;86858;-51
2022/08/28 08:59:16;;;;;;;0.67;0.40;;;26.50;67.70;;;;;;5041781;28;89405;-51
2022/08/28 09:01:47;;;;;;;2.40;0.40;;;26.40;67.80;;;;;;5040648;28;88941;-51
2022/08/28 09:04:23;;;;;;;0.73;0.50;;;26.40;67.60;;;;;;5040790;28;87005;-51
2022/08/28 09:06:56;;;;;;;0.67;0.67;;;26.40;67.60;;;;;;5042081;28;87031;-50
2022/08/28 09:09:27;;;;;;;0.87;0.63;;;26.40;67.60;;;;;;5041706;28;90031;-51
2022/08/28 09:11:57;;;;;;;1.27;0.60;;;26.40;67.60;;;;;;5041236;28;89986;-51
2022/08/28 09:14:31;;;;;;;1.17;0.80;;;26.40;67.50;;;;;;5040325;27;86966;-51
2022/08/28 09:16:59;;;;;;;2.33;0.83;;;26.30;67.40;;;;;;5041285;28;87301;-51
2022/08/28 09:19:28;;;;;;;0.57;0.53;;;26.40;67.60;;;;;;5048776;27;89135;-51
2022/08/28 09:22:00;;;;;;;1.07;0.80;;;26.40;67.60;;;;;;5033723;27;88328;-51
2022/08/28 09:24:30;;;;;;;0.80;0.57;;;26.30;67.50;;;;;;5042472;28;87271;-51
2022/08/28 09:27:00;;;;;;;1.60;0.60;;;26.30;67.20;;;;;;5042084;28;86296;-51
2022/08/28 09:29:30;;;;;;;3.03;0.50;;;26.40;67.30;;;;;;5041279;28;89089;-51
2022/08/28 09:31:58;;;;;;;1.30;0.40;;;26.40;67.30;;;;;;5040769;28;88887;-52
2022/08/28 09:34:29;;;;;;;1.60;0.73;;;26.40;67.30;;;;;;5041151;28;88191;-51
2022/08/28 09:37:02;;;;;;;1.43;0.80;;;26.40;67.10;;;;;;5040735;28;87143;-51
2022/08/28 09:39:30;;;;;;;3.87;0.50;;;26.40;67.20;;;;;;5042222;28;89173;-51
2022/08/28 09:44:55;;;;;;;2.60;0.97;;;26.20;66.90;;;;;;5030164;28;87044;-51
2022/08/28 09:47:44;;;;;;;0.87;0.70;;;26.40;66.90;;;;;;5040522;28;87140;-51
2022/08/28 09:50:29;;;;;;;0.73;0.57;;;26.30;66.80;;;;;;5041458;28;89036;-52
2022/08/28 09:52:59;;;;;;;2.33;0.80;;;26.20;69.50;;;;;;5041589;28;87689;-51
2022/08/28 09:55:31;;;;;;;0.93;0.70;;;;;;;;;;5041571;28;87047;-51
2022/08/28 09:57:59;;;;;;;0.37;0.30;;;;;;;;;;5036603;28;87234;-51
2022/08/28 10:00:29;;;;;;;0.50;0.40;;;25.90;63.90;;;;;;5036201;28;90123;-54
2022/08/28 10:02:59;;;;;;;0.97;0.40;;;26.00;69.30;;;;;;5040139;28;88843;-52
2022/08/28 10:05:37;;;;;;;0.60;0.40;;;26.00;68.00;;;;;;5040822;28;87035;-51
2022/08/28 10:08:13;;;;;;;0.40;0.40;;;26.00;66.90;;;;;;5041159;27;86962;-52
2022/08/28 10:10:44;;;;;;;0.80;0.70;;;26.00;65.90;;;;;;5040070;28;88695;-52
2022/08/28 10:13:16;;;;;;;2.53;0.60;;;26.00;67.20;;;;;;5040498;28;88811;-52
2022/08/28 10:16:08;;;;;;;0.77;0.40;;;26.00;66.10;;;;;;5043267;27;87055;-51
2022/08/28 10:18:39;;;;;;;1.13;0.40;;;26.00;65.90;;;;;;5050559;27;86241;-52
2022/08/28 10:21:12;;;;;;;0.97;0.60;;;26.00;65.80;;;;;;5041315;28;89085;-51
2022/08/28 10:23:49;;;;;;;0.60;0.50;;;26.00;66.00;;;;;;5041407;28;88846;-52
2022/08/28 10:26:25;;;;;;;1.90;0.77;;;26.00;66.10;;;;;;5040043;27;87982;-52
2022/08/28 10:28:58;;;;;;;0.83;0.70;;;25.90;63.90;;;;;;5044652;27;87710;-51
2022/08/28 10:31:30;;;;;;;0.93;0.87;;;25.90;63.40;;;;;;5043072;27;89331;-52
2022/08/28 10:34:05;;;;;;;0.50;0.50;;;26.00;63.30;;;;;;5046995;27;88908;-53
2022/08/28 10:36:34;;;;;;;0.50;0.37;;;26.00;63.20;;;;;;5045421;27;87616;-51
2022/08/28 10:39:12;;;;;;;0.57;0.53;;;26.00;63.20;;;;;;5047666;27;87430;-52
2022/08/28 10:41:41;;;;;;;3.77;0.90;;;26.00;63.30;;;;;;5046044;27;89194;-52
2022/08/28 10:44:09;;;;;;;3.33;0.50;;;26.00;63.40;;;;;;5050450;27;89085;-52
2022/08/28 10:46:40;;;;;;;0.80;0.50;;;26.00;63.50;;;;;;5046571;27;87070;-52
2022/08/28 10:49:10;;;;;;;1.10;0.73;;;26.00;63.20;;;;;;5049493;27;87166;-52
2022/08/28 10:51:41;;;;;;;0.77;0.70;;;26.00;63.20;;;;;;5040460;27;90469;-52
2022/08/28 10:54:21;;;;;;;1.73;0.77;;;26.10;63.20;;;;;;5047871;27;90511;-52
2022/08/28 10:56:52;;;;;;;0.90;0.43;;;26.10;63.00;;;;;;5049311;27;87111;-52
2022/08/28 10:59:23;;;;;;;1.93;0.90;;;26.20;63.00;;;;;;5039457;27;86937;-52
2022/08/28 11:01:51;;;;;;;1.30;0.57;;;26.20;63.10;;;;;;5044914;28;89107;-52
2022/08/28 11:04:20;;;;;;;0.87;0.57;;;26.10;63.00;;;;;;5044517;28;87385;-52
2022/08/28 11:06:54;;;;;;;0.80;0.63;;;26.20;62.80;;;;;;5043401;28;87047;-52
2022/08/28 11:09:31;;;;;;;1.37;0.53;;;26.10;62.70;;;;;;5043346;28;86285;-52
2022/08/28 11:12:00;;;;;;;1.07;0.50;;;26.20;62.70;;;;;;5043323;28;89159;-52
2022/08/28 11:14:31;;;;;;;2.03;0.60;;;26.10;62.90;;;;;;5043686;28;88876;-52
2022/08/28 11:17:01;;;;;;;0.40;0.40;;;26.00;62.70;;;;;;5043836;28;88209;-53
2022/08/28 11:19:57;;;;;;;1.50;0.60;;;26.00;62.70;;;;;;5044149;28;87025;-52
2022/08/28 11:22:26;;;;;;;0.50;0.47;;;26.00;62.90;;;;;;5043881;28;87951;-52
2022/08/28 11:24:59;;;;;;;2.23;0.70;;;26.00;62.80;;;;;;5044051;28;88974;-53
2022/08/28 11:27:35;;;;;;;0.70;0.70;;;26.00;63.70;;;;;;5044422;28;87026;-52
2022/08/28 11:30:31;;;;;;;0.47;0.43;;;26.00;62.90;;;;;;5044613;28;86901;-52
2022/08/28 11:33:24;;;;;;;0.33;0.33;;;26.00;62.90;;;;;;5044190;28;89161;-52
2022/08/28 11:35:52;;;;;;;0.60;0.30;;;25.90;62.90;;;;;;5043230;28;88902;-51
2022/08/28 11:38:54;;;;;;;1.73;0.53;;;25.90;63.10;;;;;;5044297;28;87022;-52
2022/08/28 11:41:26;;;;;;;0.43;0.43;;;26.00;63.00;;;;;;5040568;28;88036;-51
2022/08/28 11:44:23;;;;;;;0.83;0.40;;;26.00;63.00;;;;;;5042913;28;90111;-51
2022/08/28 11:46:55;;;;;;;2.47;0.50;;;25.90;62.70;;;;;;5043811;28;89880;-51
2022/08/28 11:49:43;;;;;;;1.17;0.50;;;26.00;63.00;;;;;;5043940;28;86976;-52
2022/08/28 11:52:32;;;;;;;0.47;0.47;;;26.00;62.80;;;;;;5043924;28;87015;-53
2022/08/28 11:55:10;;;;;;;1.00;0.50;;;26.00;62.70;;;;;;5044177;28;89177;-52
2022/08/28 11:57:53;;;;;;;0.80;0.80;;;26.10;62.70;;;;;;5043845;28;88979;-53
2022/08/28 12:00:25;;;;;;;0.40;0.40;;;26.10;62.70;;;;;;5043735;28;87021;-53
2022/08/28 12:02:58;;;;;;;1.23;0.40;;;26.10;62.50;;;;;;5043397;28;86322;-52
2022/08/28 12:05:44;;;;;;;0.93;0.53;;;26.20;62.70;;;;;;5043084;28;89213;-52
2022/08/28 12:08:13;;;;;;;1.03;0.77;;;26.20;62.40;;;;;;5043357;28;88893;-52
2022/08/28 12:10:56;;;;;;;0.40;0.23;;;26.30;62.60;;;;;;5042155;27;87995;-52
2022/08/28 12:13:48;;;;;;;0.90;0.43;;;26.30;62.50;;;;;;5032424;28;87068;-52
2022/08/28 12:16:16;;;;;;;0.87;0.40;;;26.30;62.50;;;;;;5042443;28;89213;-52
2022/08/28 12:19:00;;;;;;;0.30;0.30;;;26.30;62.70;;;;;;5042207;28;88812;-52
2022/08/28 12:21:28;;;;;;;1.30;0.40;;;26.30;62.40;;;;;;5042784;28;87127;-52
2022/08/28 12:24:01;;;;;;;1.30;0.50;;;26.40;62.60;;;;;;5041682;28;87107;-52
2022/08/28 12:26:38;;;;;;;0.80;0.40;;;26.40;62.30;;;;;;5042544;28;89159;-52
2022/08/28 12:29:18;;;;;;;0.50;0.50;;;26.40;62.30;;;;;;5042451;28;88783;-54
2022/08/28 12:32:11;;;;;;;0.60;0.50;;;26.40;62.20;;;;;;5040639;27;88668;-52
2022/08/28 12:34:52;;;;;;;0.43;0.40;;;26.50;62.00;;;;;;5038457;28;88408;-52
2022/08/28 12:37:39;;;;;;;0.30;0.30;;;26.50;61.90;;;;;;5041104;28;90037;-52
2022/08/28 12:40:21;;;;;;;0.33;0.33;;;26.50;62.00;;;;;;5041828;28;88758;-52
2022/08/28 12:42:51;;;;;;;0.30;0.30;;;26.50;61.90;;;;;;5042061;28;88922;-52
2022/08/28 12:45:26;;;;;;;0.40;0.40;;;26.50;61.80;;;;;;5042018;28;87000;-52
2022/08/28 12:47:56;;;;;;;1.23;0.70;;;26.50;61.80;;;;;;5043875;27;89092;-52
2022/08/28 12:50:26;;;;;;;0.40;0.40;;;26.60;61.80;;;;;;5052237;27;88898;-52
2022/08/28 12:52:55;;;;;;;0.40;0.30;;;26.60;61.60;;;;;;5060754;27;87071;-52
2022/08/28 12:55:24;;;;;;;0.67;0.43;;;26.60;61.60;;;;;;5062929;27;86339;-52
2022/08/28 12:57:54;;;;;;;1.60;0.40;;;26.50;61.70;;;;;;5048156;27;89104;-52
2022/08/28 13:00:25;;;;;;;0.80;0.73;;;26.50;61.80;;;;;;5035291;27;88872;-52
2022/08/28 13:02:54;;;;;;;0.80;0.30;;;26.50;61.50;;;;;;5055665;27;87990;-52
2022/08/28 13:05:27;;;;;;;0.60;0.37;;;26.50;61.60;;;;;;5040619;27;87115;-52
2022/08/28 13:07:55;;;;;;;1.30;0.50;;;26.50;61.50;;;;;;5041356;27;89653;-52
2022/08/28 13:10:24;;;;;;;0.67;0.33;;;26.60;61.70;;;;;;5040820;28;88832;-52
2022/08/28 13:12:53;;;;;;;1.27;0.63;;;26.50;61.40;;;;;;5041933;28;87032;-52